createdAt,value
2022-12-08T00:00:19.367Z,5.15
2022-12-08T00:02:20.943Z,3.13
2022-12-08T00:04:22.629Z,2.88
2022-12-08T00:06:43.187Z,3.95
2022-12-08T00:09:03.358Z,4.53
2022-12-08T00:11:04.840Z,3.97
2022-12-08T00:13:06.289Z,3.35
2022-12-08T00:15:07.925Z,4.28
2022-12-08T00:17:10.583Z,6.25
2022-12-08T00:19:12.190Z,6.55
2022-12-08T00:21:13.664Z,7.07
2022-12-08T00:23:15.128Z,5.95
2022-12-08T00:25:16.724Z,6.88
2022-12-08T00:27:18.246Z,7.07
2022-12-08T00:29:19.690Z,5.57
2022-12-08T00:31:21.373Z,6.38
2022-12-08T00:33:23.064Z,5.90
2022-12-08T00:35:24.642Z,6.07
2022-12-08T00:37:26.111Z,6.10
2022-12-08T00:39:27.518Z,4.38
2022-12-08T00:41:47.671Z,6.28
2022-12-08T00:43:49.292Z,4.63
2022-12-08T00:45:50.860Z,5.13
2022-12-08T00:47:52.350Z,4.60
2022-12-08T00:49:54.035Z,3.53
2022-12-08T00:51:55.524Z,6.22
2022-12-08T00:53:57.196Z,4.18
2022-12-08T00:55:58.696Z,5.45
2022-12-08T00:58:00.166Z,5.28
2022-12-08T01:00:02.365Z,5.20
2022-12-08T01:02:04.162Z,4.18
2022-12-08T01:04:05.921Z,5.07
2022-12-08T01:06:08.097Z,4.78
2022-12-08T01:08:09.860Z,5.93
2022-12-08T01:10:11.657Z,4.85
2022-12-08T01:12:13.196Z,8.88
2022-12-08T01:14:14.663Z,6.50
2022-12-08T01:16:42.322Z,3.92
2022-12-08T01:18:43.811Z,4.55
2022-12-08T01:20:45.320Z,4.65
2022-12-08T01:22:47.515Z,5.55
2022-12-08T01:24:49.101Z,7.00
2022-12-08T01:26:51.101Z,4.97
2022-12-08T01:28:52.619Z,8.02
2022-12-08T01:30:54.160Z,9.93
2022-12-08T01:32:56.723Z,7.38
2022-12-08T01:34:58.236Z,9.35
2022-12-08T01:36:59.662Z,6.03
2022-12-08T01:39:01.866Z,7.88
2022-12-08T01:41:03.547Z,7.97
2022-12-08T01:43:05.048Z,6.30
2022-12-08T01:45:21.717Z,6.57
2022-12-08T01:47:24.180Z,3.95
2022-12-08T01:49:28.741Z,4.05
2022-12-08T01:51:47.152Z,5.93
2022-12-08T01:53:49.813Z,6.13
2022-12-08T01:55:56.987Z,5.28
2022-12-08T01:58:04.243Z,3.78
2022-12-08T02:00:13.357Z,5.00
2022-12-08T02:02:17.156Z,5.05
2022-12-08T02:04:21.510Z,4.10
2022-12-08T02:06:25.882Z,4.18
2022-12-08T02:08:30.090Z,4.72
2022-12-08T02:10:35.709Z,6.03
2022-12-08T02:12:39.895Z,6.55
2022-12-08T02:14:43.654Z,6.43
2022-12-08T02:16:52.819Z,7.47
2022-12-08T02:19:29.160Z,4.90
2022-12-08T02:21:47.124Z,6.88
2022-12-08T02:24:02.088Z,5.68
2022-12-08T02:26:24.038Z,5.18
2022-12-08T02:28:44.605Z,8.05
2022-12-08T02:30:46.029Z,7.85
2022-12-08T02:33:06.407Z,5.78
2022-12-08T02:35:20.148Z,6.53
2022-12-08T02:37:22.093Z,9.05
2022-12-08T02:39:44.546Z,4.75
2022-12-08T02:41:49.387Z,4.47
2022-12-08T02:43:57.333Z,3.83
2022-12-08T02:46:05.467Z,4.32
2022-12-08T02:48:08.589Z,4.07
2022-12-08T02:50:10.124Z,4.47
2022-12-08T02:52:11.623Z,4.78
2022-12-08T02:54:14.449Z,3.72
2022-12-08T02:56:34.747Z,5.95
2022-12-08T02:58:54.694Z,4.43
2022-12-08T03:01:05.395Z,3.72
2022-12-08T03:03:16.190Z,4.70
2022-12-08T03:05:26.570Z,6.95
2022-12-08T03:07:30.932Z,4.90
2022-12-08T03:09:35.424Z,7.78
2022-12-08T03:11:43.329Z,5.90
2022-12-08T03:13:46.219Z,6.50
2022-12-08T03:15:50.086Z,6.03
2022-12-08T03:17:54.863Z,8.30
2022-12-08T03:19:58.061Z,5.25
2022-12-08T03:22:03.232Z,5.72
2022-12-08T03:24:06.740Z,6.47
2022-12-08T03:26:13.565Z,8.15
2022-12-08T03:28:15.415Z,7.50
2022-12-08T03:30:16.960Z,8.13
2022-12-08T03:32:18.441Z,8.60
2022-12-08T03:34:21.140Z,9.98
2022-12-08T03:36:23.019Z,7.20
2022-12-08T03:38:24.599Z,6.93
2022-12-08T03:40:26.034Z,9.35
2022-12-08T03:42:27.481Z,4.85
2022-12-08T03:44:29.001Z,7.32
2022-12-08T03:48:31.908Z,6.88
2022-12-08T03:50:33.321Z,7.95
2022-12-08T03:52:34.883Z,5.70
2022-12-08T03:54:36.320Z,6.28
2022-12-08T03:56:38.523Z,6.30
2022-12-08T03:58:39.979Z,6.22
2022-12-08T04:00:41.532Z,7.13
2022-12-08T04:02:43.106Z,5.78
2022-12-08T04:04:44.935Z,4.40
2022-12-08T04:06:47.201Z,6.45
2022-12-08T04:08:49.299Z,4.70
2022-12-08T04:10:50.911Z,6.90
2022-12-08T04:12:52.568Z,6.95
2022-12-08T04:14:54.101Z,8.93
2022-12-08T04:16:55.569Z,9.02
2022-12-08T04:18:57.196Z,11.13
2022-12-08T04:20:58.644Z,9.88
2022-12-08T04:23:00.108Z,12.70
2022-12-08T04:25:02.052Z,8.55
2022-12-08T04:27:03.723Z,8.77
2022-12-08T04:29:06.110Z,7.80
2022-12-08T04:31:07.679Z,6.43
2022-12-08T04:33:09.495Z,6.20
2022-12-08T04:35:10.994Z,7.93
2022-12-08T04:37:12.428Z,6.38
2022-12-08T04:39:14.372Z,5.65
2022-12-08T04:41:15.811Z,5.57
2022-12-08T04:43:17.387Z,6.18
2022-12-08T04:45:18.953Z,8.13
2022-12-08T04:47:22.209Z,8.45
2022-12-08T04:49:23.788Z,10.47
2022-12-08T04:51:25.326Z,9.27
2022-12-08T04:53:27.201Z,9.75
2022-12-08T04:55:41.460Z,12.50
2022-12-08T04:57:48.147Z,4.82
2022-12-08T04:59:50.130Z,7.90
2022-12-08T05:01:54.001Z,6.22
2022-12-08T05:03:58.292Z,8.80
2022-12-08T05:06:06.909Z,5.55
2022-12-08T05:08:12.424Z,5.70
2022-12-08T05:10:16.394Z,6.72
2022-12-08T05:14:24.133Z,8.55
2022-12-08T05:16:27.683Z,6.40
2022-12-08T05:18:31.528Z,8.18
2022-12-08T05:20:35.566Z,7.00
2022-12-08T05:22:39.400Z,6.78
2022-12-08T05:24:47.380Z,7.68
2022-12-08T05:26:51.802Z,5.45
2022-12-08T05:28:56.035Z,5.78
2022-12-08T05:33:01.150Z,5.38
2022-12-08T05:35:02.743Z,6.35
2022-12-08T05:37:04.622Z,5.30
2022-12-08T05:39:06.187Z,5.28
2022-12-08T05:41:08.158Z,6.45
2022-12-08T05:43:10.375Z,6.60
2022-12-08T05:45:11.888Z,8.25
2022-12-08T05:47:13.489Z,6.90
2022-12-08T05:49:15.248Z,5.13
2022-12-08T05:51:18.422Z,6.20
2022-12-08T05:53:20.506Z,5.47
2022-12-08T05:55:21.950Z,6.13
2022-12-08T05:57:23.482Z,7.50
2022-12-08T05:59:25.256Z,6.10
2022-12-08T06:01:30.844Z,4.47
2022-12-08T06:03:32.461Z,5.88
2022-12-08T06:05:34.767Z,5.13
2022-12-08T06:07:36.189Z,6.38
2022-12-08T06:09:37.768Z,5.35
2022-12-08T06:11:39.249Z,7.47
2022-12-08T06:13:40.768Z,6.22
2022-12-08T06:15:42.552Z,4.57
2022-12-08T06:17:44.009Z,4.72
2022-12-08T06:19:45.545Z,4.85
2022-12-08T06:21:47.009Z,4.55
2022-12-08T06:23:52.629Z,5.28
2022-12-08T06:25:54.265Z,3.58
2022-12-08T06:27:55.659Z,4.55
2022-12-08T06:29:57.633Z,5.40
2022-12-08T06:31:59.343Z,5.53
2022-12-08T06:34:00.934Z,5.25
2022-12-08T06:36:02.391Z,6.03
2022-12-08T06:38:03.834Z,4.88
2022-12-08T06:40:05.885Z,3.97
2022-12-08T06:42:26.369Z,7.13
2022-12-08T06:44:27.972Z,5.15
2022-12-08T06:46:29.498Z,7.57
2022-12-08T06:48:31.092Z,5.00
2022-12-08T06:50:35.579Z,4.28
2022-12-08T06:52:45.647Z,6.05
2022-12-08T06:54:50.998Z,4.93
2022-12-08T06:56:52.548Z,8.48
2022-12-08T06:58:54.345Z,9.60
2022-12-08T07:00:56.010Z,8.50
2022-12-08T07:02:57.694Z,8.75
2022-12-08T07:04:59.295Z,8.13
2022-12-08T07:07:01.194Z,8.85
2022-12-08T07:09:02.733Z,7.38
2022-12-08T07:11:08.649Z,5.63
2022-12-08T07:13:10.323Z,6.07
2022-12-08T07:15:11.907Z,7.47
2022-12-08T07:17:13.759Z,5.85
2022-12-08T07:19:15.370Z,4.55
2022-12-08T07:21:17.751Z,6.35
2022-12-08T07:23:19.301Z,4.32
2022-12-08T07:25:21.280Z,4.30
2022-12-08T07:27:22.809Z,3.42
2022-12-08T07:29:26.363Z,4.20
2022-12-08T07:31:28.921Z,6.45
2022-12-08T07:33:31.467Z,5.15
2022-12-08T07:35:34.853Z,4.35
2022-12-08T07:37:37.623Z,3.58
2022-12-08T07:39:39.095Z,3.15
2022-12-08T07:41:41.007Z,6.45
2022-12-08T07:43:42.883Z,7.55
2022-12-08T07:45:44.730Z,4.03
2022-12-08T07:47:46.269Z,5.18
2022-12-08T07:49:48.101Z,4.68
2022-12-08T07:51:49.727Z,7.57
2022-12-08T07:53:54.091Z,5.03
2022-12-08T07:55:56.548Z,4.57
2022-12-08T07:57:58.268Z,5.18
2022-12-08T08:00:03.710Z,4.43
2022-12-08T08:02:23.617Z,5.18
2022-12-08T08:04:26.992Z,6.38
2022-12-08T08:06:28.882Z,8.43
2022-12-08T08:08:45.709Z,5.13
2022-12-08T08:10:51.657Z,4.55
2022-12-08T08:12:58.295Z,6.53
2022-12-08T08:15:03.031Z,6.57
2022-12-08T08:17:07.825Z,5.80
2022-12-08T08:19:12.687Z,5.63
2022-12-08T08:21:47.200Z,5.70
2022-12-08T08:23:42.357Z,5.70
2022-12-08T08:25:46.871Z,5.20
2022-12-08T08:27:50.175Z,5.93
2022-12-08T08:29:54.108Z,5.13
2022-12-08T08:31:58.011Z,4.80
2022-12-08T08:34:07.423Z,3.83
2022-12-08T08:36:11.566Z,4.97
2022-12-08T08:38:16.632Z,3.95
2022-12-08T08:40:20.569Z,3.20
2022-12-08T08:42:24.015Z,4.70
2022-12-08T08:44:28.110Z,4.15
2022-12-08T08:48:35.164Z,5.18
2022-12-08T08:50:37.876Z,4.00
2022-12-08T08:52:39.705Z,5.55
2022-12-08T08:54:41.559Z,5.00
2022-12-08T08:56:43.257Z,6.22
2022-12-08T08:58:45.104Z,6.53
2022-12-08T09:00:46.792Z,4.07
2022-12-08T09:02:48.480Z,5.10
2022-12-08T09:04:50.304Z,7.10
2022-12-08T09:06:52.089Z,3.88
2022-12-08T09:08:54.009Z,4.13
2022-12-08T09:10:55.805Z,3.47
2022-12-08T09:12:57.573Z,4.00
2022-12-08T09:14:59.417Z,4.00
2022-12-08T09:17:01.212Z,3.35
2022-12-08T09:19:02.958Z,6.32
2022-12-08T09:21:08.717Z,5.40
2022-12-08T09:23:10.648Z,3.40
2022-12-08T09:25:12.351Z,4.60
2022-12-08T09:27:14.111Z,4.43
2022-12-08T09:29:17.386Z,5.25
2022-12-08T09:31:19.714Z,3.70
2022-12-08T09:33:21.837Z,5.55
2022-12-08T09:35:23.549Z,3.92
2022-12-08T09:37:25.681Z,3.35
2022-12-08T09:39:27.238Z,3.70
2022-12-08T09:41:38.922Z,3.22
2022-12-08T09:43:43.467Z,4.32
2022-12-08T09:45:45.746Z,4.10
2022-12-08T09:47:59.644Z,7.15
2022-12-08T09:50:04.512Z,6.38
2022-12-08T09:52:11.050Z,5.93
2022-12-08T09:54:21.076Z,9.40
2022-12-08T09:56:23.890Z,7.40
2022-12-08T09:58:39.412Z,9.90
2022-12-08T10:00:41.278Z,13.27
2022-12-08T10:02:45.112Z,14.27
2022-12-08T10:04:46.867Z,14.90
2022-12-08T10:06:58.045Z,18.60
2022-12-08T10:09:22.723Z,14.27
2022-12-08T10:11:32.491Z,17.98
2022-12-08T10:13:39.848Z,14.75
2022-12-08T10:15:52.906Z,10.80
2022-12-08T10:17:54.980Z,10.50
2022-12-08T10:20:07.273Z,8.52
2022-12-08T10:22:15.452Z,5.72
2022-12-08T10:24:37.611Z,5.95
2022-12-08T10:26:39.435Z,4.22
2022-12-08T10:28:44.663Z,5.78
2022-12-08T10:30:47.360Z,5.47
2022-12-08T10:32:49.676Z,5.30
2022-12-08T10:35:08.301Z,5.93
2022-12-08T10:37:10.639Z,4.13
2022-12-08T10:39:28.076Z,3.35
2022-12-08T10:41:29.714Z,2.72
2022-12-08T10:43:31.659Z,2.85
2022-12-08T10:45:44.038Z,3.25
2022-12-08T10:47:55.587Z,2.47
2022-12-08T10:50:17.469Z,2.28
2022-12-08T10:52:25.243Z,2.58
2022-12-08T10:54:34.002Z,2.53
2022-12-08T10:56:35.845Z,5.25
2022-12-08T10:58:40.523Z,2.53
2022-12-08T11:00:42.199Z,2.40
2022-12-08T11:02:54.867Z,3.35
2022-12-08T11:07:24.839Z,5.18
2022-12-08T11:09:48.814Z,1.95
2022-12-08T11:11:50.539Z,2.65
2022-12-08T11:13:53.021Z,4.43
2022-12-08T11:16:01.071Z,2.40
2022-12-08T11:18:31.567Z,1.55
2022-12-08T11:20:41.290Z,1.38
2022-12-08T11:22:44.033Z,2.90
2022-12-08T11:24:47.024Z,2.00
2022-12-08T11:26:55.724Z,1.57
2022-12-08T11:29:00.535Z,2.10
2022-12-08T11:31:21.741Z,2.33
2022-12-08T11:33:29.221Z,3.35
2022-12-08T11:35:41.061Z,2.60
2022-12-08T11:37:44.440Z,3.85
2022-12-08T11:39:48.934Z,2.75
2022-12-08T11:41:58.687Z,2.38
2022-12-08T11:44:22.281Z,2.72
2022-12-08T11:46:41.591Z,2.28
2022-12-08T11:48:45.876Z,1.52
2022-12-08T11:50:54.842Z,1.92
2022-12-08T11:52:58.698Z,2.70
2022-12-08T11:55:07.133Z,2.30
2022-12-08T11:57:14.646Z,1.92
2022-12-08T11:59:23.850Z,3.70
2022-12-08T12:01:27.462Z,2.75
2022-12-08T12:03:38.778Z,2.78
2022-12-08T12:08:14.022Z,3.30
2022-12-08T12:10:28.316Z,2.85
2022-12-08T12:12:32.630Z,5.50
2022-12-08T12:14:41.799Z,1.50
2022-12-08T12:16:46.525Z,1.83
2022-12-08T12:18:52.349Z,2.22
2022-12-08T12:21:17.164Z,2.40
2022-12-08T12:23:37.234Z,2.00
2022-12-08T12:25:45.937Z,1.77
2022-12-08T12:27:49.596Z,2.72
2022-12-08T12:30:05.581Z,1.67
2022-12-08T12:32:08.691Z,1.65
2022-12-08T12:34:22.299Z,2.85
2022-12-08T12:36:25.865Z,1.90
2022-12-08T12:38:50.792Z,1.80
2022-12-08T12:40:58.564Z,2.33
2022-12-08T12:43:00.328Z,3.33
2022-12-08T12:45:16.977Z,1.73
2022-12-08T12:47:38.612Z,2.45
2022-12-08T12:49:40.434Z,2.33
2022-12-08T12:51:42.617Z,1.55
2022-12-08T12:54:26.090Z,1.40
2022-12-08T12:56:47.149Z,2.05
2022-12-08T12:58:50.814Z,1.48
2022-12-08T13:01:14.848Z,2.47
2022-12-08T13:03:17.382Z,2.10
2022-12-08T13:05:19.112Z,1.75
2022-12-08T13:07:25.602Z,2.28
2022-12-08T13:09:29.043Z,1.17
2022-12-08T13:11:47.901Z,1.45
2022-12-08T13:13:56.579Z,1.15
2022-12-08T13:16:15.463Z,1.40
2022-12-08T13:18:34.814Z,1.23
2022-12-08T13:20:46.401Z,0.77
2022-12-08T13:22:50.705Z,0.80
2022-12-08T13:24:52.580Z,1.95
2022-12-08T13:27:03.646Z,1.05
2022-12-08T13:29:13.016Z,2.13
2022-12-08T13:31:34.092Z,1.10
2022-12-08T13:33:39.833Z,2.58
2022-12-08T13:35:44.722Z,2.00
2022-12-08T13:37:54.555Z,0.80
2022-12-08T13:39:59.529Z,1.90
2022-12-08T13:42:03.782Z,1.30
2022-12-08T13:50:42.613Z,1.38
2022-12-08T13:53:22.341Z,1.50
2022-12-08T13:58:29.589Z,1.73
2022-12-08T14:00:31.352Z,2.45
2022-12-08T14:02:48.202Z,3.08
2022-12-08T14:07:12.257Z,2.75
2022-12-08T14:09:18.425Z,1.85
2022-12-08T14:11:33.608Z,1.88
2022-12-08T14:13:36.983Z,2.67
2022-12-08T14:15:40.520Z,2.30
2022-12-08T14:17:50.660Z,2.35
2022-12-08T14:20:03.141Z,2.08
2022-12-08T14:22:13.172Z,2.53
2022-12-08T14:24:16.781Z,2.50
2022-12-08T14:26:21.475Z,4.60
2022-12-08T14:28:40.049Z,2.38
2022-12-08T14:30:55.771Z,2.70
2022-12-08T14:33:03.096Z,1.52
2022-12-08T14:35:08.612Z,1.85
2022-12-08T14:37:15.906Z,1.65
2022-12-08T14:39:37.037Z,1.80
2022-12-08T14:41:40.615Z,2.80
2022-12-08T14:43:53.038Z,1.75
2022-12-08T14:46:08.535Z,1.80
2022-12-08T14:48:27.377Z,1.42
2022-12-08T14:50:44.435Z,1.08
2022-12-08T14:52:48.521Z,1.27
2022-12-08T14:54:55.104Z,1.40
2022-12-08T14:56:58.856Z,1.52
2022-12-08T14:59:13.185Z,3.88
2022-12-08T15:01:25.141Z,0.80
2022-12-08T15:03:31.758Z,1.60
2022-12-08T15:05:33.552Z,1.38
2022-12-08T15:07:46.525Z,0.60
2022-12-08T15:09:50.230Z,1.23
2022-12-08T15:11:59.804Z,1.52
2022-12-08T15:14:01.651Z,0.93
2022-12-08T15:16:23.093Z,1.45
2022-12-08T15:18:38.593Z,0.90
2022-12-08T15:20:51.510Z,0.80
2022-12-08T15:22:54.149Z,1.73
2022-12-08T15:24:56.119Z,0.65
2022-12-08T15:26:57.920Z,0.60
2022-12-08T15:29:09.758Z,0.57
2022-12-08T15:31:11.621Z,0.80
2022-12-08T15:33:13.432Z,0.60
2022-12-08T15:35:16.775Z,0.65
2022-12-08T15:37:27.130Z,0.70
2022-12-08T15:39:31.329Z,0.63
2022-12-08T15:43:34.464Z,0.80
2022-12-08T15:45:35.994Z,0.55
2022-12-08T15:47:37.753Z,0.73
2022-12-08T15:49:39.683Z,0.90
2022-12-08T15:51:41.254Z,0.60
2022-12-08T15:53:43.173Z,0.68
2022-12-08T15:56:03.574Z,1.23
2022-12-08T16:00:51.890Z,0.60
2022-12-08T16:03:22.673Z,0.73
2022-12-08T16:05:41.069Z,0.50
2022-12-08T16:07:38.389Z,0.70
2022-12-08T16:09:41.456Z,0.85
2022-12-08T16:12:07.200Z,0.52
2022-12-08T16:16:21.442Z,0.50
2022-12-08T16:18:26.473Z,0.85
2022-12-08T16:20:43.989Z,1.38
2022-12-08T16:23:03.116Z,0.47
2022-12-08T16:25:18.171Z,0.60
2022-12-08T16:27:59.193Z,0.60
2022-12-08T16:29:48.109Z,0.82
2022-12-08T16:31:50.185Z,1.10
2022-12-08T16:33:52.415Z,1.23
2022-12-08T16:35:53.892Z,1.00
2022-12-08T16:37:55.491Z,1.08
2022-12-08T16:39:58.807Z,1.08
2022-12-08T16:42:19.112Z,2.97
2022-12-08T16:44:20.563Z,2.88
2022-12-08T16:46:26.039Z,3.25
2022-12-08T16:48:27.846Z,2.25
2022-12-08T16:50:30.314Z,2.10
2022-12-08T16:52:31.875Z,5.70
2022-12-08T16:54:33.426Z,4.15
2022-12-08T16:56:34.977Z,2.45
2022-12-08T16:58:36.484Z,3.13
2022-12-08T17:00:38.313Z,3.10
2022-12-08T17:02:39.879Z,3.10
2022-12-08T17:04:41.458Z,2.95
2022-12-08T17:06:43.114Z,2.28
2022-12-08T17:08:44.669Z,2.60
2022-12-08T17:13:31.861Z,2.92
2022-12-08T17:15:58.606Z,3.85
2022-12-08T17:18:00.276Z,6.68
2022-12-08T17:20:11.857Z,5.55
2022-12-08T17:22:18.389Z,5.72
2022-12-08T17:24:23.144Z,8.88
2022-12-08T17:26:24.606Z,6.68
2022-12-08T17:28:51.941Z,7.38
2022-12-08T17:30:50.274Z,7.72
2022-12-08T17:32:53.275Z,7.85
2022-12-08T17:34:55.601Z,8.90
2022-12-08T17:36:57.671Z,9.35
2022-12-08T17:39:02.335Z,8.25
2022-12-08T17:41:06.663Z,6.82
2022-12-08T17:45:12.619Z,11.35
2022-12-08T17:47:15.822Z,8.48
2022-12-08T17:49:21.912Z,12.73
2022-12-08T17:51:24.838Z,15.02
2022-12-08T17:53:28.360Z,11.68
2022-12-08T17:55:32.756Z,12.55
2022-12-08T17:57:34.407Z,13.68
2022-12-08T17:59:35.905Z,12.48
2022-12-08T18:01:37.503Z,14.55
2022-12-08T18:03:39.321Z,13.68
2022-12-08T18:05:40.907Z,16.27
2022-12-08T18:07:42.392Z,12.00
2022-12-08T18:09:43.942Z,15.15
2022-12-08T18:11:46.601Z,12.73
2022-12-08T18:13:48.767Z,16.90
2022-12-08T18:15:50.456Z,13.65
2022-12-08T18:17:51.905Z,17.00
2022-12-08T18:19:53.455Z,15.55
2022-12-08T18:21:55.647Z,15.52
2022-12-08T18:23:57.174Z,11.18
2022-12-08T18:25:58.649Z,13.88
2022-12-08T18:28:00.116Z,12.57
2022-12-08T18:30:02.726Z,15.32
2022-12-08T18:32:04.396Z,10.57
2022-12-08T18:34:06.009Z,13.85
2022-12-08T18:36:09.252Z,17.13
2022-12-08T18:38:10.720Z,14.73
2022-12-08T18:40:12.713Z,11.38
2022-12-08T18:42:23.453Z,11.48
2022-12-08T18:44:25.272Z,10.98
2022-12-08T18:46:26.767Z,12.73
2022-12-08T18:48:28.920Z,15.68
2022-12-08T18:50:30.502Z,11.63
2022-12-08T18:52:34.360Z,11.50
2022-12-08T18:55:08.216Z,7.80
2022-12-08T18:57:00.112Z,8.27
2022-12-08T18:59:04.182Z,9.75
2022-12-08T19:01:05.912Z,8.15
2022-12-08T19:03:07.481Z,8.63
2022-12-08T19:05:09.966Z,10.68
2022-12-08T19:07:12.368Z,8.05
2022-12-08T19:09:14.228Z,9.82
2022-12-08T19:11:23.673Z,7.60
2022-12-08T19:13:25.317Z,7.43
2022-12-08T19:15:26.966Z,13.77
2022-12-08T19:17:29.748Z,9.23
2022-12-08T19:19:31.276Z,10.98
2022-12-08T19:21:32.981Z,15.07
2022-12-08T19:23:41.656Z,15.38
2022-12-08T19:25:43.875Z,15.27
2022-12-08T19:27:45.760Z,18.35
2022-12-08T19:29:47.319Z,13.93
2022-12-08T19:31:49.368Z,17.80
2022-12-08T19:33:51.210Z,13.60
2022-12-08T19:35:53.063Z,15.38
2022-12-08T19:37:55.140Z,17.83
2022-12-08T19:40:15.417Z,12.10
2022-12-08T19:43:08.468Z,14.15
2022-12-08T19:45:13.043Z,14.27
2022-12-08T19:47:15.075Z,14.90
2022-12-08T19:49:17.269Z,19.30
2022-12-08T19:51:18.898Z,16.77
2022-12-08T19:53:21.465Z,21.27
2022-12-08T19:55:23.797Z,16.90
2022-12-08T19:57:25.470Z,18.25
2022-12-08T19:59:30.298Z,17.02
2022-12-08T20:01:32.110Z,18.67
2022-12-08T20:03:34.233Z,14.60
2022-12-08T20:05:37.793Z,15.77
2022-12-08T20:07:39.841Z,13.93
2022-12-08T20:09:41.467Z,14.52
2022-12-08T20:11:42.993Z,12.02
2022-12-08T20:13:45.973Z,15.35
2022-12-08T20:15:50.870Z,13.60
2022-12-08T20:17:52.408Z,12.10
2022-12-08T20:19:54.136Z,10.90
2022-12-08T20:21:57.778Z,15.20
2022-12-08T20:24:01.868Z,10.98
2022-12-08T20:26:10.577Z,13.40
2022-12-08T20:28:14.868Z,17.40
2022-12-08T20:30:18.278Z,19.13
2022-12-08T20:32:21.758Z,15.93
2022-12-08T20:34:24.866Z,16.53
2022-12-08T20:36:27.864Z,19.83
2022-12-08T20:38:32.014Z,18.73
2022-12-08T20:40:34.786Z,14.55
2022-12-08T20:42:38.776Z,15.55
2022-12-08T20:46:49.593Z,20.75
2022-12-08T20:48:53.395Z,23.92
2022-12-08T20:50:56.222Z,20.67
2022-12-08T20:53:00.171Z,23.75
2022-12-08T20:55:05.890Z,21.15
2022-12-08T20:57:08.872Z,21.25
2022-12-08T20:59:15.725Z,19.42
2022-12-08T21:01:19.254Z,17.77
2022-12-08T21:03:21.460Z,19.65
2022-12-08T21:05:23.495Z,16.73
2022-12-08T21:07:25.519Z,16.40
2022-12-08T21:09:27.687Z,12.90
2022-12-08T21:11:29.523Z,11.50
2022-12-08T21:13:31.463Z,13.15
2022-12-08T21:15:33.295Z,12.75
2022-12-08T21:17:34.916Z,11.10
2022-12-08T21:19:37.787Z,11.43
2022-12-08T21:21:39.482Z,9.55
2022-12-08T21:23:41.763Z,10.07
2022-12-08T21:25:44.345Z,9.93
2022-12-08T21:27:46.802Z,11.65
2022-12-08T21:29:48.544Z,9.43
2022-12-08T21:31:50.561Z,8.38
2022-12-08T21:33:52.923Z,11.20
2022-12-08T21:36:01.864Z,11.60
2022-12-08T21:38:04.917Z,10.90
2022-12-08T21:40:07.693Z,7.55
2022-12-08T21:42:33.880Z,12.55
2022-12-08T21:44:36.300Z,10.85
2022-12-08T21:46:38.209Z,10.63
2022-12-08T21:48:40.118Z,9.48
2022-12-08T21:50:41.693Z,9.85
2022-12-08T21:52:44.377Z,12.60
2022-12-08T21:54:45.824Z,10.95
2022-12-08T21:56:48.085Z,11.48
2022-12-08T21:58:49.832Z,12.88
2022-12-08T22:00:51.548Z,12.63
2022-12-08T22:02:53.298Z,16.17
2022-12-08T22:04:55.011Z,17.55
2022-12-08T22:06:56.745Z,14.50
2022-12-08T22:08:58.324Z,14.50
2022-12-08T22:11:00.184Z,8.95
2022-12-08T22:13:01.805Z,9.40
2022-12-08T22:15:05.715Z,13.02
2022-12-08T22:17:07.511Z,12.75
2022-12-08T22:19:09.489Z,10.95
2022-12-08T22:21:12.394Z,14.43
2022-12-08T22:23:14.132Z,14.32
2022-12-08T22:25:15.827Z,9.38
2022-12-08T22:27:17.393Z,15.35
2022-12-08T22:29:19.118Z,13.52
2022-12-08T22:31:21.118Z,11.82
2022-12-08T22:33:22.709Z,14.00
2022-12-08T22:35:24.150Z,16.27
2022-12-08T22:37:25.615Z,14.15
2022-12-08T22:39:27.220Z,16.33
2022-12-08T22:41:28.973Z,15.10
2022-12-08T22:43:31.340Z,17.08
2022-12-08T22:45:33.077Z,16.15
2022-12-08T22:47:34.699Z,23.38
2022-12-08T22:49:36.610Z,16.17
2022-12-08T22:51:38.672Z,16.98
2022-12-08T22:53:40.660Z,14.15
2022-12-08T22:55:43.669Z,12.77
2022-12-08T22:57:45.320Z,14.43
2022-12-08T22:59:46.832Z,15.52
2022-12-08T23:01:48.358Z,11.45
2022-12-08T23:03:50.224Z,16.85
2022-12-08T23:05:52.193Z,19.77
2022-12-08T23:07:53.895Z,19.98
2022-12-08T23:09:55.571Z,24.02
2022-12-08T23:11:57.235Z,21.20
2022-12-08T23:14:02.588Z,15.65
2022-12-08T23:16:04.134Z,16.38
2022-12-08T23:18:06.300Z,14.52
2022-12-08T23:20:08.311Z,15.98
2022-12-08T23:22:10.137Z,16.48
2022-12-08T23:24:11.656Z,15.35
2022-12-08T23:26:20.950Z,14.18
2022-12-08T23:28:22.597Z,11.20
2022-12-08T23:30:24.460Z,13.57
2022-12-08T23:32:26.114Z,12.30
2022-12-08T23:34:27.709Z,16.67
2022-12-08T23:36:29.316Z,15.68
2022-12-08T23:38:32.102Z,17.23
2022-12-08T23:40:36.086Z,15.05
2022-12-08T23:42:40.210Z,14.40
2022-12-08T23:44:44.237Z,13.18
2022-12-08T23:46:47.860Z,17.30
2022-12-08T23:48:52.797Z,17.10
2022-12-08T23:50:58.374Z,15.98
2022-12-08T23:53:03.358Z,21.77
2022-12-08T23:55:08.032Z,18.27
2022-12-08T23:57:13.380Z,19.65
2022-12-08T23:59:18.350Z,19.92
